sensor_id;sensor_type;location;lat;lon;timestamp;temperature;humidity
29729;DHT22;20055;51.498;11.960;2024-02-04T00:01:55;9.80;99.90
29729;DHT22;20055;51.498;11.960;2024-02-04T00:04:21;9.70;99.90
29729;DHT22;20055;51.498;11.960;2024-02-04T00:06:49;9.70;99.90
29729;DHT22;20055;51.498;11.960;2024-02-04T00:09:15;9.60;99.90
29729;DHT22;20055;51.498;11.960;2024-02-04T00:11:41;9.60;99.90
29729;DHT22;20055;51.498;11.960;2024-02-04T00:14:08;9.50;99.90
29729;DHT22;20055;51.498;11.960;2024-02-04T00:16:34;9.50;99.90
29729;DHT22;20055;51.498;11.960;2024-02-04T00:19:01;9.40;99.90
29729;DHT22;20055;51.498;11.960;2024-02-04T00:21:27;9.40;99.90
29729;DHT22;20055;51.498;11.960;2024-02-04T00:23:53;9.40;99.90
29729;DHT22;20055;51.498;11.960;2024-02-04T00:26:19;9.40;99.90
29729;DHT22;20055;51.498;11.960;2024-02-04T00:28:45;9.50;99.90
29729;DHT22;20055;51.498;11.960;2024-02-04T00:31:12;9.60;99.90
29729;DHT22;20055;51.498;11.960;2024-02-04T00:33:38;9.60;99.90
29729;DHT22;20055;51.498;11.960;2024-02-04T00:36:04;9.70;99.90
29729;DHT22;20055;51.498;11.960;2024-02-04T00:38:31;9.60;99.90
29729;DHT22;20055;51.498;11.960;2024-02-04T00:40:57;9.60;99.90
29729;DHT22;20055;51.498;11.960;2024-02-04T00:43:23;9.60;99.90
29729;DHT22;20055;51.498;11.960;2024-02-04T00:45:49;9.70;99.90
29729;DHT22;20055;51.498;11.960;2024-02-04T00:48:16;9.70;99.90
29729;DHT22;20055;51.498;11.960;2024-02-04T00:50:42;9.70;99.90
29729;DHT22;20055;51.498;11.960;2024-02-04T00:53:08;9.70;99.90
29729;DHT22;20055;51.498;11.960;2024-02-04T00:55:34;9.70;99.90
29729;DHT22;20055;51.498;11.960;2024-02-04T00:58:00;9.70;99.90
29729;DHT22;20055;51.498;11.960;2024-02-04T01:00:28;9.60;99.90
29729;DHT22;20055;51.498;11.960;2024-02-04T01:02:54;9.70;99.90
29729;DHT22;20055;51.498;11.960;2024-02-04T01:05:20;9.70;99.90
29729;DHT22;20055;51.498;11.960;2024-02-04T01:07:47;9.70;99.90
29729;DHT22;20055;51.498;11.960;2024-02-04T01:10:13;9.80;99.90
29729;DHT22;20055;51.498;11.960;2024-02-04T01:12:39;9.80;99.90
29729;DHT22;20055;51.498;11.960;2024-02-04T01:15:06;9.80;99.90
29729;DHT22;20055;51.498;11.960;2024-02-04T01:17:32;9.80;99.90
29729;DHT22;20055;51.498;11.960;2024-02-04T01:19:59;9.70;99.90
29729;DHT22;20055;51.498;11.960;2024-02-04T01:22:26;9.80;99.90
29729;DHT22;20055;51.498;11.960;2024-02-04T01:24:53;9.80;99.90
29729;DHT22;20055;51.498;11.960;2024-02-04T01:27:19;9.80;99.90
29729;DHT22;20055;51.498;11.960;2024-02-04T01:29:46;9.90;99.90
29729;DHT22;20055;51.498;11.960;2024-02-04T01:32:12;9.90;99.90
29729;DHT22;20055;51.498;11.960;2024-02-04T01:34:38;9.90;99.90
29729;DHT22;20055;51.498;11.960;2024-02-04T01:37:04;9.90;99.90
29729;DHT22;20055;51.498;11.960;2024-02-04T01:39:30;9.90;99.90
29729;DHT22;20055;51.498;11.960;2024-02-04T01:41:57;9.90;99.90
29729;DHT22;20055;51.498;11.960;2024-02-04T01:44:23;9.70;99.90
29729;DHT22;20055;51.498;11.960;2024-02-04T01:46:50;9.60;99.90
29729;DHT22;20055;51.498;11.960;2024-02-04T01:49:16;9.70;99.90
29729;DHT22;20055;51.498;11.960;2024-02-04T01:51:42;9.70;99.90
29729;DHT22;20055;51.498;11.960;2024-02-04T01:54:09;9.70;99.90
29729;DHT22;20055;51.498;11.960;2024-02-04T01:56:36;9.60;99.90
29729;DHT22;20055;51.498;11.960;2024-02-04T01:59:02;9.60;99.90
29729;DHT22;20055;51.498;11.960;2024-02-04T02:01:29;9.60;99.90
29729;DHT22;20055;51.498;11.960;2024-02-04T02:03:56;9.60;99.90
29729;DHT22;20055;51.498;11.960;2024-02-04T02:06:22;9.50;99.90
29729;DHT22;20055;51.498;11.960;2024-02-04T02:08:49;9.40;99.90
29729;DHT22;20055;51.498;11.960;2024-02-04T02:11:21;9.30;99.90
29729;DHT22;20055;51.498;11.960;2024-02-04T02:13:57;9.20;99.90
29729;DHT22;20055;51.498;11.960;2024-02-04T02:16:31;9.20;99.90
29729;DHT22;20055;51.498;11.960;2024-02-04T02:19:06;9.20;99.90
29729;DHT22;20055;51.498;11.960;2024-02-04T02:21:56;9.10;99.90
29729;DHT22;20055;51.498;11.960;2024-02-04T02:26:52;9.00;99.90
29729;DHT22;20055;51.498;11.960;2024-02-04T02:29:19;8.90;99.90
29729;DHT22;20055;51.498;11.960;2024-02-04T02:31:45;8.90;99.90
29729;DHT22;20055;51.498;11.960;2024-02-04T02:34:12;9.00;99.90
29729;DHT22;20055;51.498;11.960;2024-02-04T02:36:45;8.90;99.90
29729;DHT22;20055;51.498;11.960;2024-02-04T02:39:17;8.70;99.90
29729;DHT22;20055;51.498;11.960;2024-02-04T02:41:49;8.70;99.90
29729;DHT22;20055;51.498;11.960;2024-02-04T02:44:16;8.70;99.90
29729;DHT22;20055;51.498;11.960;2024-02-04T02:46:45;8.60;99.90
29729;DHT22;20055;51.498;11.960;2024-02-04T02:49:11;8.60;99.90
29729;DHT22;20055;51.498;11.960;2024-02-04T02:51:37;8.60;99.90
29729;DHT22;20055;51.498;11.960;2024-02-04T02:54:04;8.70;99.90
29729;DHT22;20055;51.498;11.960;2024-02-04T02:56:30;8.70;99.90
29729;DHT22;20055;51.498;11.960;2024-02-04T02:58:56;8.70;99.90
29729;DHT22;20055;51.498;11.960;2024-02-04T03:01:22;8.70;99.90
29729;DHT22;20055;51.498;11.960;2024-02-04T03:03:49;8.70;99.90
29729;DHT22;20055;51.498;11.960;2024-02-04T03:06:16;8.80;99.90
29729;DHT22;20055;51.498;11.960;2024-02-04T03:08:42;8.80;99.90
29729;DHT22;20055;51.498;11.960;2024-02-04T03:11:09;8.80;99.90
29729;DHT22;20055;51.498;11.960;2024-02-04T03:13:38;8.80;99.90
29729;DHT22;20055;51.498;11.960;2024-02-04T03:16:10;8.90;99.90
29729;DHT22;20055;51.498;11.960;2024-02-04T03:18:41;8.90;99.90
29729;DHT22;20055;51.498;11.960;2024-02-04T03:21:11;9.00;99.90
29729;DHT22;20055;51.498;11.960;2024-02-04T03:23:37;9.00;99.90
29729;DHT22;20055;51.498;11.960;2024-02-04T03:26:04;9.10;99.90
29729;DHT22;20055;51.498;11.960;2024-02-04T03:28:30;9.20;99.90
29729;DHT22;20055;51.498;11.960;2024-02-04T03:30:56;9.20;99.90
29729;DHT22;20055;51.498;11.960;2024-02-04T03:33:22;9.20;99.90
29729;DHT22;20055;51.498;11.960;2024-02-04T03:35:49;9.20;99.90
29729;DHT22;20055;51.498;11.960;2024-02-04T03:38:15;9.30;99.90
29729;DHT22;20055;51.498;11.960;2024-02-04T03:40:42;9.30;99.90
29729;DHT22;20055;51.498;11.960;2024-02-04T03:43:09;9.30;99.90
29729;DHT22;20055;51.498;11.960;2024-02-04T03:45:36;9.40;99.90
29729;DHT22;20055;51.498;11.960;2024-02-04T03:48:03;9.50;99.90
29729;DHT22;20055;51.498;11.960;2024-02-04T03:50:29;9.40;99.90
29729;DHT22;20055;51.498;11.960;2024-02-04T03:52:55;9.40;99.90
29729;DHT22;20055;51.498;11.960;2024-02-04T03:55:23;9.40;99.90
29729;DHT22;20055;51.498;11.960;2024-02-04T03:57:49;9.50;99.90
29729;DHT22;20055;51.498;11.960;2024-02-04T04:00:16;9.50;99.90
29729;DHT22;20055;51.498;11.960;2024-02-04T04:02:42;9.60;99.90
29729;DHT22;20055;51.498;11.960;2024-02-04T04:05:11;9.50;99.90
29729;DHT22;20055;51.498;11.960;2024-02-04T04:07:39;9.60;99.90
29729;DHT22;20055;51.498;11.960;2024-02-04T04:10:06;9.60;99.90
29729;DHT22;20055;51.498;11.960;2024-02-04T04:12:32;9.60;99.90
29729;DHT22;20055;51.498;11.960;2024-02-04T04:14:58;9.60;99.90
29729;DHT22;20055;51.498;11.960;2024-02-04T04:17:25;9.60;99.90
29729;DHT22;20055;51.498;11.960;2024-02-04T04:19:51;9.60;99.90
29729;DHT22;20055;51.498;11.960;2024-02-04T04:22:17;9.70;99.90
29729;DHT22;20055;51.498;11.960;2024-02-04T04:24:44;9.60;99.90
29729;DHT22;20055;51.498;11.960;2024-02-04T04:27:10;9.60;99.90
29729;DHT22;20055;51.498;11.960;2024-02-04T04:29:36;9.60;99.90
29729;DHT22;20055;51.498;11.960;2024-02-04T04:32:03;9.60;99.90
29729;DHT22;20055;51.498;11.960;2024-02-04T04:34:29;9.50;99.90
29729;DHT22;20055;51.498;11.960;2024-02-04T04:36:55;9.50;99.90
29729;DHT22;20055;51.498;11.960;2024-02-04T04:39:21;9.50;99.90
29729;DHT22;20055;51.498;11.960;2024-02-04T04:41:48;9.50;99.90
29729;DHT22;20055;51.498;11.960;2024-02-04T04:44:14;9.40;99.90
29729;DHT22;20055;51.498;11.960;2024-02-04T04:46:40;9.40;99.90
29729;DHT22;20055;51.498;11.960;2024-02-04T04:49:07;9.40;99.90
29729;DHT22;20055;51.498;11.960;2024-02-04T04:51:33;9.40;99.90
29729;DHT22;20055;51.498;11.960;2024-02-04T04:53:59;9.40;99.90
29729;DHT22;20055;51.498;11.960;2024-02-04T04:56:26;9.30;99.90
29729;DHT22;20055;51.498;11.960;2024-02-04T04:58:52;9.30;99.90
29729;DHT22;20055;51.498;11.960;2024-02-04T05:01:18;9.20;99.90
29729;DHT22;20055;51.498;11.960;2024-02-04T05:03:44;9.20;99.90
29729;DHT22;20055;51.498;11.960;2024-02-04T05:06:11;9.30;99.90
29729;DHT22;20055;51.498;11.960;2024-02-04T05:08:37;9.40;99.90
29729;DHT22;20055;51.498;11.960;2024-02-04T05:11:04;9.30;99.90
29729;DHT22;20055;51.498;11.960;2024-02-04T05:13:30;9.30;99.90
29729;DHT22;20055;51.498;11.960;2024-02-04T05:15:56;9.30;99.90
29729;DHT22;20055;51.498;11.960;2024-02-04T05:18:22;9.30;99.90
29729;DHT22;20055;51.498;11.960;2024-02-04T05:20:52;9.20;99.90
29729;DHT22;20055;51.498;11.960;2024-02-04T05:23:19;9.20;99.90
29729;DHT22;20055;51.498;11.960;2024-02-04T05:25:45;9.20;99.90
29729;DHT22;20055;51.498;11.960;2024-02-04T05:28:11;9.20;99.90
29729;DHT22;20055;51.498;11.960;2024-02-04T05:30:38;9.20;99.90
29729;DHT22;20055;51.498;11.960;2024-02-04T05:33:04;9.20;99.90
29729;DHT22;20055;51.498;11.960;2024-02-04T05:35:30;9.20;99.90
29729;DHT22;20055;51.498;11.960;2024-02-04T05:37:56;9.10;99.90
29729;DHT22;20055;51.498;11.960;2024-02-04T05:40:23;9.10;99.90
29729;DHT22;20055;51.498;11.960;2024-02-04T05:42:49;9.10;99.90
29729;DHT22;20055;51.498;11.960;2024-02-04T05:45:15;9.20;99.90
29729;DHT22;20055;51.498;11.960;2024-02-04T05:47:41;9.20;99.90
29729;DHT22;20055;51.498;11.960;2024-02-04T05:50:08;9.20;99.90
29729;DHT22;20055;51.498;11.960;2024-02-04T05:52:34;9.30;99.90
29729;DHT22;20055;51.498;11.960;2024-02-04T05:55:00;9.30;99.90
29729;DHT22;20055;51.498;11.960;2024-02-04T05:57:26;9.40;99.90
29729;DHT22;20055;51.498;11.960;2024-02-04T05:59:53;9.40;99.90
29729;DHT22;20055;51.498;11.960;2024-02-04T06:02:19;9.50;99.90
29729;DHT22;20055;51.498;11.960;2024-02-04T06:04:45;9.50;99.90
29729;DHT22;20055;51.498;11.960;2024-02-04T06:07:12;9.60;99.90
29729;DHT22;20055;51.498;11.960;2024-02-04T06:09:39;9.50;99.90
29729;DHT22;20055;51.498;11.960;2024-02-04T06:12:05;9.50;99.90
29729;DHT22;20055;51.498;11.960;2024-02-04T06:14:33;9.50;99.90
29729;DHT22;20055;51.498;11.960;2024-02-04T06:17:01;9.50;99.90
29729;DHT22;20055;51.498;11.960;2024-02-04T06:19:27;9.50;99.90
29729;DHT22;20055;51.498;11.960;2024-02-04T06:21:53;9.50;99.90
29729;DHT22;20055;51.498;11.960;2024-02-04T06:24:19;9.50;99.90
29729;DHT22;20055;51.498;11.960;2024-02-04T06:26:46;9.50;99.90
29729;DHT22;20055;51.498;11.960;2024-02-04T06:29:12;9.50;99.90
29729;DHT22;20055;51.498;11.960;2024-02-04T06:31:38;9.50;99.90
29729;DHT22;20055;51.498;11.960;2024-02-04T06:34:05;9.40;99.90
29729;DHT22;20055;51.498;11.960;2024-02-04T06:36:31;9.40;99.90
29729;DHT22;20055;51.498;11.960;2024-02-04T06:38:57;9.50;99.90
29729;DHT22;20055;51.498;11.960;2024-02-04T06:41:23;9.50;99.90
29729;DHT22;20055;51.498;11.960;2024-02-04T06:43:49;9.50;99.90
29729;DHT22;20055;51.498;11.960;2024-02-04T06:46:24;9.50;99.90
29729;DHT22;20055;51.498;11.960;2024-02-04T06:48:51;9.60;99.90
29729;DHT22;20055;51.498;11.960;2024-02-04T06:51:17;9.60;99.90
29729;DHT22;20055;51.498;11.960;2024-02-04T06:53:43;9.60;99.90
29729;DHT22;20055;51.498;11.960;2024-02-04T06:56:09;9.70;99.90
29729;DHT22;20055;51.498;11.960;2024-02-04T06:58:39;9.50;99.90
29729;DHT22;20055;51.498;11.960;2024-02-04T07:01:05;9.50;99.90
29729;DHT22;20055;51.498;11.960;2024-02-04T07:03:31;9.50;99.90
29729;DHT22;20055;51.498;11.960;2024-02-04T07:05:59;9.60;99.90
29729;DHT22;20055;51.498;11.960;2024-02-04T07:08:25;9.70;99.90
29729;DHT22;20055;51.498;11.960;2024-02-04T07:10:51;9.70;99.90
29729;DHT22;20055;51.498;11.960;2024-02-04T07:13:18;9.80;99.90
29729;DHT22;20055;51.498;11.960;2024-02-04T07:15:44;9.80;99.90
29729;DHT22;20055;51.498;11.960;2024-02-04T07:18:11;9.70;99.90
29729;DHT22;20055;51.498;11.960;2024-02-04T07:20:37;9.70;99.90
29729;DHT22;20055;51.498;11.960;2024-02-04T07:23:04;9.80;99.90
29729;DHT22;20055;51.498;11.960;2024-02-04T07:25:31;9.70;99.90
29729;DHT22;20055;51.498;11.960;2024-02-04T07:27:59;9.80;99.90
29729;DHT22;20055;51.498;11.960;2024-02-04T07:30:26;9.80;99.90
29729;DHT22;20055;51.498;11.960;2024-02-04T07:32:52;9.90;99.90
29729;DHT22;20055;51.498;11.960;2024-02-04T07:35:18;9.80;99.90
29729;DHT22;20055;51.498;11.960;2024-02-04T07:37:45;9.70;99.90
29729;DHT22;20055;51.498;11.960;2024-02-04T07:40:11;9.70;99.90
29729;DHT22;20055;51.498;11.960;2024-02-04T07:42:37;9.70;99.90
29729;DHT22;20055;51.498;11.960;2024-02-04T07:45:04;9.60;99.90
29729;DHT22;20055;51.498;11.960;2024-02-04T07:47:35;9.60;99.90
29729;DHT22;20055;51.498;11.960;2024-02-04T07:50:02;9.60;99.90
29729;DHT22;20055;51.498;11.960;2024-02-04T07:52:29;9.60;99.90
29729;DHT22;20055;51.498;11.960;2024-02-04T07:54:55;9.60;99.90
29729;DHT22;20055;51.498;11.960;2024-02-04T07:57:21;9.60;99.90
29729;DHT22;20055;51.498;11.960;2024-02-04T07:59:47;9.70;99.90
29729;DHT22;20055;51.498;11.960;2024-02-04T08:02:14;9.70;99.90
29729;DHT22;20055;51.498;11.960;2024-02-04T08:04:40;9.70;99.90
29729;DHT22;20055;51.498;11.960;2024-02-04T08:07:07;9.80;99.90
29729;DHT22;20055;51.498;11.960;2024-02-04T08:09:33;9.90;99.90
29729;DHT22;20055;51.498;11.960;2024-02-04T08:12:00;10.00;99.90
29729;DHT22;20055;51.498;11.960;2024-02-04T08:14:26;10.10;99.90
29729;DHT22;20055;51.498;11.960;2024-02-04T08:16:52;10.20;99.90
29729;DHT22;20055;51.498;11.960;2024-02-04T08:19:18;10.20;99.90
29729;DHT22;20055;51.498;11.960;2024-02-04T08:21:45;10.20;99.90
29729;DHT22;20055;51.498;11.960;2024-02-04T08:24:11;10.40;99.90
29729;DHT22;20055;51.498;11.960;2024-02-04T08:26:37;10.40;99.90
29729;DHT22;20055;51.498;11.960;2024-02-04T08:29:03;10.50;99.90
29729;DHT22;20055;51.498;11.960;2024-02-04T08:31:33;10.50;99.90
29729;DHT22;20055;51.498;11.960;2024-02-04T08:34:02;10.40;99.90
29729;DHT22;20055;51.498;11.960;2024-02-04T08:36:29;10.30;99.90
29729;DHT22;20055;51.498;11.960;2024-02-04T08:38:56;10.30;99.90
29729;DHT22;20055;51.498;11.960;2024-02-04T08:41:23;10.30;99.90
29729;DHT22;20055;51.498;11.960;2024-02-04T08:43:49;10.30;99.90
29729;DHT22;20055;51.498;11.960;2024-02-04T08:46:15;10.20;99.90
29729;DHT22;20055;51.498;11.960;2024-02-04T08:48:42;10.30;99.90
29729;DHT22;20055;51.498;11.960;2024-02-04T08:51:12;10.20;99.90
29729;DHT22;20055;51.498;11.960;2024-02-04T08:53:42;10.20;99.90
29729;DHT22;20055;51.498;11.960;2024-02-04T08:56:08;10.40;99.90
29729;DHT22;20055;51.498;11.960;2024-02-04T08:58:35;10.40;99.90
29729;DHT22;20055;51.498;11.960;2024-02-04T09:01:04;10.50;99.90
29729;DHT22;20055;51.498;11.960;2024-02-04T09:03:31;10.60;99.90
29729;DHT22;20055;51.498;11.960;2024-02-04T09:05:57;10.60;99.90
29729;DHT22;20055;51.498;11.960;2024-02-04T09:08:24;10.60;99.90
29729;DHT22;20055;51.498;11.960;2024-02-04T09:10:50;10.50;99.90
29729;DHT22;20055;51.498;11.960;2024-02-04T09:13:17;10.50;99.90
29729;DHT22;20055;51.498;11.960;2024-02-04T09:15:43;10.50;99.90
29729;DHT22;20055;51.498;11.960;2024-02-04T09:18:09;10.60;99.90
29729;DHT22;20055;51.498;11.960;2024-02-04T09:20:36;10.50;99.90
29729;DHT22;20055;51.498;11.960;2024-02-04T09:23:02;10.50;99.90
29729;DHT22;20055;51.498;11.960;2024-02-04T09:25:29;10.50;99.90
29729;DHT22;20055;51.498;11.960;2024-02-04T09:27:56;10.50;99.90
29729;DHT22;20055;51.498;11.960;2024-02-04T09:30:22;10.60;99.90
29729;DHT22;20055;51.498;11.960;2024-02-04T09:32:48;10.70;99.90
29729;DHT22;20055;51.498;11.960;2024-02-04T09:35:14;10.70;99.90
29729;DHT22;20055;51.498;11.960;2024-02-04T09:37:42;10.70;99.90
29729;DHT22;20055;51.498;11.960;2024-02-04T09:40:08;10.70;99.90
29729;DHT22;20055;51.498;11.960;2024-02-04T09:42:35;10.60;99.90
29729;DHT22;20055;51.498;11.960;2024-02-04T09:45:01;10.80;99.90
29729;DHT22;20055;51.498;11.960;2024-02-04T09:47:29;10.90;99.90
29729;DHT22;20055;51.498;11.960;2024-02-04T09:49:55;10.90;99.90
29729;DHT22;20055;51.498;11.960;2024-02-04T09:52:29;10.90;99.90
29729;DHT22;20055;51.498;11.960;2024-02-04T09:55:02;10.90;99.90
29729;DHT22;20055;51.498;11.960;2024-02-04T09:57:29;10.90;99.90
29729;DHT22;20055;51.498;11.960;2024-02-04T09:59:59;10.80;99.90
29729;DHT22;20055;51.498;11.960;2024-02-04T10:02:25;10.80;99.90
29729;DHT22;20055;51.498;11.960;2024-02-04T10:04:52;10.70;99.90
29729;DHT22;20055;51.498;11.960;2024-02-04T10:07:18;10.70;99.90
29729;DHT22;20055;51.498;11.960;2024-02-04T10:09:45;10.70;99.90
29729;DHT22;20055;51.498;11.960;2024-02-04T10:12:11;10.70;99.90
29729;DHT22;20055;51.498;11.960;2024-02-04T10:14:37;10.80;99.90
29729;DHT22;20055;51.498;11.960;2024-02-04T10:17:04;11.00;99.90
29729;DHT22;20055;51.498;11.960;2024-02-04T10:19:30;11.10;99.90
29729;DHT22;20055;51.498;11.960;2024-02-04T10:22:00;11.20;99.90
29729;DHT22;20055;51.498;11.960;2024-02-04T10:24:27;11.00;99.90
29729;DHT22;20055;51.498;11.960;2024-02-04T10:26:57;11.10;99.90
29729;DHT22;20055;51.498;11.960;2024-02-04T10:29:24;11.00;99.90
29729;DHT22;20055;51.498;11.960;2024-02-04T10:31:57;11.10;99.90
29729;DHT22;20055;51.498;11.960;2024-02-04T10:34:26;11.00;99.90
29729;DHT22;20055;51.498;11.960;2024-02-04T10:36:53;11.00;99.90
29729;DHT22;20055;51.498;11.960;2024-02-04T10:39:19;11.10;99.90
29729;DHT22;20055;51.498;11.960;2024-02-04T10:41:50;11.10;99.90
29729;DHT22;20055;51.498;11.960;2024-02-04T10:44:23;11.10;99.90
29729;DHT22;20055;51.498;11.960;2024-02-04T10:46:51;11.10;99.90
29729;DHT22;20055;51.498;11.960;2024-02-04T10:49:18;11.10;99.90
29729;DHT22;20055;51.498;11.960;2024-02-04T10:51:46;10.90;99.90
29729;DHT22;20055;51.498;11.960;2024-02-04T10:54:15;10.90;99.90
29729;DHT22;20055;51.498;11.960;2024-02-04T10:56:46;10.90;99.90
29729;DHT22;20055;51.498;11.960;2024-02-04T10:59:15;10.70;99.90
29729;DHT22;20055;51.498;11.960;2024-02-04T11:01:45;10.70;99.90
29729;DHT22;20055;51.498;11.960;2024-02-04T11:04:14;10.60;99.90
29729;DHT22;20055;51.498;11.960;2024-02-04T11:06:42;10.40;99.90
29729;DHT22;20055;51.498;11.960;2024-02-04T11:09:08;10.30;99.90
29729;DHT22;20055;51.498;11.960;2024-02-04T11:11:39;10.30;99.90
29729;DHT22;20055;51.498;11.960;2024-02-04T11:14:09;10.30;99.90
29729;DHT22;20055;51.498;11.960;2024-02-04T11:19:28;10.40;99.90
29729;DHT22;20055;51.498;11.960;2024-02-04T11:22:11;10.60;99.90
29729;DHT22;20055;51.498;11.960;2024-02-04T11:27:18;10.60;99.90
29729;DHT22;20055;51.498;11.960;2024-02-04T11:29:45;10.60;99.90
29729;DHT22;20055;51.498;11.960;2024-02-04T11:32:11;10.70;99.90
29729;DHT22;20055;51.498;11.960;2024-02-04T11:34:38;10.70;99.90
29729;DHT22;20055;51.498;11.960;2024-02-04T11:37:17;10.80;99.90
29729;DHT22;20055;51.498;11.960;2024-02-04T11:39:54;10.90;99.90
29729;DHT22;20055;51.498;11.960;2024-02-04T11:42:23;11.00;99.90
29729;DHT22;20055;51.498;11.960;2024-02-04T11:44:49;11.00;99.90
29729;DHT22;20055;51.498;11.960;2024-02-04T11:47:26;10.90;99.90
29729;DHT22;20055;51.498;11.960;2024-02-04T11:49:58;10.90;99.90
29729;DHT22;20055;51.498;11.960;2024-02-04T11:52:28;10.80;99.90
29729;DHT22;20055;51.498;11.960;2024-02-04T11:54:54;10.70;99.90
29729;DHT22;20055;51.498;11.960;2024-02-04T11:57:21;10.50;99.90
29729;DHT22;20055;51.498;11.960;2024-02-04T11:59:49;10.50;99.90
29729;DHT22;20055;51.498;11.960;2024-02-04T12:02:17;10.60;99.90
29729;DHT22;20055;51.498;11.960;2024-02-04T12:04:44;10.60;99.90
29729;DHT22;20055;51.498;11.960;2024-02-04T12:07:11;10.50;99.90
29729;DHT22;20055;51.498;11.960;2024-02-04T12:09:39;10.50;99.90
29729;DHT22;20055;51.498;11.960;2024-02-04T12:12:06;10.50;99.90
29729;DHT22;20055;51.498;11.960;2024-02-04T12:14:35;10.60;99.90
29729;DHT22;20055;51.498;11.960;2024-02-04T12:17:10;10.50;99.90
29729;DHT22;20055;51.498;11.960;2024-02-04T12:19:37;10.50;99.90
29729;DHT22;20055;51.498;11.960;2024-02-04T12:22:07;10.60;99.90
29729;DHT22;20055;51.498;11.960;2024-02-04T12:24:37;10.60;99.90
29729;DHT22;20055;51.498;11.960;2024-02-04T12:27:04;10.70;99.90
29729;DHT22;20055;51.498;11.960;2024-02-04T12:29:32;10.70;99.90
29729;DHT22;20055;51.498;11.960;2024-02-04T12:31:59;10.90;99.90
29729;DHT22;20055;51.498;11.960;2024-02-04T12:34:25;11.00;99.90
29729;DHT22;20055;51.498;11.960;2024-02-04T12:36:59;11.00;99.90
29729;DHT22;20055;51.498;11.960;2024-02-04T12:39:26;11.10;99.90
29729;DHT22;20055;51.498;11.960;2024-02-04T12:41:53;11.20;99.90
29729;DHT22;20055;51.498;11.960;2024-02-04T12:44:19;11.30;99.90
29729;DHT22;20055;51.498;11.960;2024-02-04T12:46:50;11.20;99.90
29729;DHT22;20055;51.498;11.960;2024-02-04T12:49:20;11.20;99.90
29729;DHT22;20055;51.498;11.960;2024-02-04T12:51:50;11.20;99.90
29729;DHT22;20055;51.498;11.960;2024-02-04T12:54:19;11.30;99.90
29729;DHT22;20055;51.498;11.960;2024-02-04T12:56:48;11.20;99.90
29729;DHT22;20055;51.498;11.960;2024-02-04T12:59:29;11.10;99.90
29729;DHT22;20055;51.498;11.960;2024-02-04T13:02:00;11.10;99.90
29729;DHT22;20055;51.498;11.960;2024-02-04T13:04:26;11.10;99.90
29729;DHT22;20055;51.498;11.960;2024-02-04T13:06:59;11.10;99.90
29729;DHT22;20055;51.498;11.960;2024-02-04T13:09:25;11.10;99.90
29729;DHT22;20055;51.498;11.960;2024-02-04T13:11:51;11.20;99.90
29729;DHT22;20055;51.498;11.960;2024-02-04T13:14:18;11.30;99.90
29729;DHT22;20055;51.498;11.960;2024-02-04T13:16:44;11.10;99.90
29729;DHT22;20055;51.498;11.960;2024-02-04T13:19:10;11.00;99.90
29729;DHT22;20055;51.498;11.960;2024-02-04T13:21:36;11.00;99.90
29729;DHT22;20055;51.498;11.960;2024-02-04T13:24:03;11.00;99.90
29729;DHT22;20055;51.498;11.960;2024-02-04T13:26:29;10.90;99.90
29729;DHT22;20055;51.498;11.960;2024-02-04T13:28:55;10.80;99.90
29729;DHT22;20055;51.498;11.960;2024-02-04T13:31:22;10.80;99.90
29729;DHT22;20055;51.498;11.960;2024-02-04T13:33:48;10.70;99.90
29729;DHT22;20055;51.498;11.960;2024-02-04T13:36:14;10.70;99.90
29729;DHT22;20055;51.498;11.960;2024-02-04T13:38:40;10.70;99.90
29729;DHT22;20055;51.498;11.960;2024-02-04T13:41:07;10.80;99.90
29729;DHT22;20055;51.498;11.960;2024-02-04T13:43:34;10.70;99.90
29729;DHT22;20055;51.498;11.960;2024-02-04T13:46:00;10.80;99.90
29729;DHT22;20055;51.498;11.960;2024-02-04T13:48:27;10.80;99.90
29729;DHT22;20055;51.498;11.960;2024-02-04T13:50:54;10.80;99.90
29729;DHT22;20055;51.498;11.960;2024-02-04T13:53:20;10.80;99.90
29729;DHT22;20055;51.498;11.960;2024-02-04T13:55:48;10.70;99.90
29729;DHT22;20055;51.498;11.960;2024-02-04T13:58:15;10.70;99.90
29729;DHT22;20055;51.498;11.960;2024-02-04T14:00:41;10.80;99.90
29729;DHT22;20055;51.498;11.960;2024-02-04T14:03:08;10.70;99.90
29729;DHT22;20055;51.498;11.960;2024-02-04T14:05:34;10.60;99.90
29729;DHT22;20055;51.498;11.960;2024-02-04T14:08:00;10.60;99.90
29729;DHT22;20055;51.498;11.960;2024-02-04T14:10:27;10.60;99.90
29729;DHT22;20055;51.498;11.960;2024-02-04T14:12:53;10.60;99.90
29729;DHT22;20055;51.498;11.960;2024-02-04T14:15:19;10.60;99.90
29729;DHT22;20055;51.498;11.960;2024-02-04T14:17:45;10.50;99.90
29729;DHT22;20055;51.498;11.960;2024-02-04T14:20:11;10.70;99.90
29729;DHT22;20055;51.498;11.960;2024-02-04T14:22:39;10.60;99.90
29729;DHT22;20055;51.498;11.960;2024-02-04T14:25:06;10.70;99.90
29729;DHT22;20055;51.498;11.960;2024-02-04T14:27:32;10.60;99.90
29729;DHT22;20055;51.498;11.960;2024-02-04T14:29:59;10.50;99.90
29729;DHT22;20055;51.498;11.960;2024-02-04T14:32:25;10.50;99.90
29729;DHT22;20055;51.498;11.960;2024-02-04T14:34:51;10.50;99.90
29729;DHT22;20055;51.498;11.960;2024-02-04T14:37:19;10.40;99.90
29729;DHT22;20055;51.498;11.960;2024-02-04T14:39:46;10.40;99.90
29729;DHT22;20055;51.498;11.960;2024-02-04T14:42:12;10.40;99.90
29729;DHT22;20055;51.498;11.960;2024-02-04T14:44:38;10.40;99.90
29729;DHT22;20055;51.498;11.960;2024-02-04T14:47:05;10.40;99.90
29729;DHT22;20055;51.498;11.960;2024-02-04T14:49:31;10.40;99.90
29729;DHT22;20055;51.498;11.960;2024-02-04T14:51:58;10.40;99.90
29729;DHT22;20055;51.498;11.960;2024-02-04T14:54:24;10.40;99.90
29729;DHT22;20055;51.498;11.960;2024-02-04T14:56:50;10.40;99.90
29729;DHT22;20055;51.498;11.960;2024-02-04T14:59:17;10.40;99.90
29729;DHT22;20055;51.498;11.960;2024-02-04T15:01:47;10.50;99.90
29729;DHT22;20055;51.498;11.960;2024-02-04T15:04:14;10.50;99.90
29729;DHT22;20055;51.498;11.960;2024-02-04T15:06:41;10.60;99.90
29729;DHT22;20055;51.498;11.960;2024-02-04T15:09:07;10.70;99.90
29729;DHT22;20055;51.498;11.960;2024-02-04T15:11:37;10.80;99.90
29729;DHT22;20055;51.498;11.960;2024-02-04T15:14:03;10.80;99.90
29729;DHT22;20055;51.498;11.960;2024-02-04T15:16:30;10.70;99.90
29729;DHT22;20055;51.498;11.960;2024-02-04T15:18:56;10.70;99.90
29729;DHT22;20055;51.498;11.960;2024-02-04T15:21:23;10.70;99.90
29729;DHT22;20055;51.498;11.960;2024-02-04T15:23:50;10.60;99.90
29729;DHT22;20055;51.498;11.960;2024-02-04T15:26:17;10.40;99.90
29729;DHT22;20055;51.498;11.960;2024-02-04T15:28:47;10.40;99.90
29729;DHT22;20055;51.498;11.960;2024-02-04T15:31:15;10.50;99.90
29729;DHT22;20055;51.498;11.960;2024-02-04T15:33:41;10.50;99.90